Time;durP1;ratioP1;P1;durP2;ratioP2;P2;SDS_P1;SDS_P2;PMS_P1;PMS_P2;Temp;Humidity;BMP_temperature;BMP_pressure;BME280_temperature;BME280_humidity;BME280_pressure;Samples;Min_cycle;Max_cycle;Signal;HPM_P1;HPM_P2
2022/10/29 00:00:57;;;;;;;1.00;1.00;;;;;;;14.01;100.00;101299.69;5074075;28;20191;-73
2022/10/29 00:03:25;;;;;;;1.33;1.00;;;;;;;13.96;100.00;101302.19;5077802;28;20244;-73
2022/10/29 00:05:58;;;;;;;2.08;1.13;;;;;;;14.02;100.00;101297.09;5080082;28;20204;-73
2022/10/29 00:08:25;;;;;;;1.08;1.00;;;;;;;13.76;100.00;101272.22;5041196;28;20194;-73
2022/10/29 00:10:52;;;;;;;1.05;1.00;;;;;;;13.82;100.00;101287.97;5071423;28;20279;-73
2022/10/29 00:13:19;;;;;;;2.20;1.27;;;;;;;13.56;100.00;101268.28;5078883;28;20202;-73
2022/10/29 00:15:46;;;;;;;1.42;1.08;;;;;;;13.76;100.00;101293.06;5075847;28;20198;-73
2022/10/29 00:18:12;;;;;;;1.35;1.00;;;;;;;13.62;100.00;101271.03;5075564;28;21052;-73
2022/10/29 00:20:39;;;;;;;1.10;1.00;;;;;;;13.58;100.00;101274.44;5080690;28;20209;-73
2022/10/29 00:23:07;;;;;;;1.00;1.00;;;;;;;13.79;100.00;101277.50;5074859;28;20214;-73
2022/10/29 00:25:34;;;;;;;1.52;1.10;;;;;;;13.60;100.00;101280.53;5078480;28;20276;-73
2022/10/29 00:28:01;;;;;;;1.23;1.13;;;;;;;13.51;100.00;101272.53;5077717;28;20202;-73
2022/10/29 00:30:27;;;;;;;0.95;0.95;;;;;;;13.46;100.00;101279.34;5074998;28;20198;-73
2022/10/29 00:32:54;;;;;;;1.10;1.00;;;;;;;13.44;100.00;101288.88;5074924;28;20198;-73
2022/10/29 00:35:21;;;;;;;1.42;1.10;;;;;;;13.49;100.00;101276.81;5077780;28;20264;-73
2022/10/29 00:37:48;;;;;;;1.30;1.20;;;;;;;13.51;100.00;101289.06;5077716;28;20202;-73
2022/10/29 00:40:16;;;;;;;1.10;1.00;;;;;;;13.63;100.00;101283.19;5078241;28;20206;-72
2022/10/29 00:42:43;;;;;;;0.98;0.90;;;;;;;13.36;100.00;101265.25;5077754;28;20293;-72
2022/10/29 00:45:18;;;;;;;0.90;0.90;;;;;;;13.62;100.00;101284.06;5074223;28;20222;-73
2022/10/29 00:47:49;;;;;;;1.40;1.05;;;;;;;13.47;100.00;101282.00;5072374;28;20293;-72
2022/10/29 00:50:16;;;;;;;1.77;1.20;;;;;;;13.33;100.00;101271.28;5078962;28;20221;-73
2022/10/29 00:52:45;;;;;;;1.63;1.15;;;;;;;13.44;100.00;101284.53;5077596;28;20206;-73
2022/10/29 00:55:15;;;;;;;1.38;1.00;;;;;;;13.43;100.00;101287.09;5074707;28;20198;-73
2022/10/29 00:57:48;;;;;;;5.22;1.80;;;;;;;13.37;100.00;101275.72;5036758;28;20294;-73
2022/10/29 01:00:16;;;;;;;1.15;1.00;;;;;;;13.26;100.00;101278.91;5074024;28;20198;-73
2022/10/29 01:02:44;;;;;;;1.25;1.05;;;;;;;13.20;100.00;101289.16;5076390;28;20244;-73
2022/10/29 01:05:13;;;;;;;1.92;1.10;;;;;;;13.01;100.00;101248.78;5075395;28;20744;-73
2022/10/29 01:07:40;;;;;;;1.20;1.10;;;;;;;13.01;100.00;101281.75;5069743;28;20202;-71
2022/10/29 01:10:08;;;;;;;1.17;1.00;;;;;;;13.10;100.00;101281.97;5073416;28;20210;-72
2022/10/29 01:13:02;;;;;;;1.52;1.10;;;;;;;13.15;100.00;101278.66;5079792;28;20201;-73
2022/10/29 01:15:36;;;;;;;1.05;1.00;;;;;;;13.07;100.00;101282.75;5071843;28;20220;-73
2022/10/29 01:18:13;;;;;;;1.08;1.00;;;;;;;13.04;100.00;101272.28;5075134;28;20239;-73
2022/10/29 01:21:07;;;;;;;1.20;1.00;;;;;;;13.03;100.00;101265.31;5026961;28;20197;-72
2022/10/29 01:24:02;;;;;;;0.93;0.90;;;;;;;13.03;100.00;101273.13;5038609;28;20218;-73
2022/10/29 01:26:57;;;;;;;0.90;0.90;;;;;;;13.05;100.00;101270.56;5029069;28;20203;-72
2022/10/29 01:29:41;;;;;;;0.93;0.90;;;;;;;13.02;100.00;101268.75;5026856;28;20227;-73
2022/10/29 01:32:13;;;;;;;1.10;1.00;;;;;;;12.87;100.00;101247.56;5029334;28;20283;-73
2022/10/29 01:34:46;;;;;;;0.95;0.90;;;;;;;13.01;100.00;101268.72;5030083;28;20204;-73
2022/10/29 01:37:20;;;;;;;1.10;1.00;;;;;;;13.01;100.00;101258.31;5029196;28;20200;-73
2022/10/29 01:39:57;;;;;;;1.00;1.00;;;;;;;13.08;100.00;101252.41;5028709;28;20215;-73
2022/10/29 01:42:32;;;;;;;1.25;1.00;;;;;;;13.08;100.00;101258.50;5029353;28;20274;-73
2022/10/29 01:45:08;;;;;;;1.35;1.00;;;;;;;13.05;100.00;101263.63;5029587;28;20696;-73
2022/10/29 01:47:41;;;;;;;1.10;0.93;;;;;;;12.91;100.00;101268.47;5030636;28;20208;-72
2022/10/29 01:50:13;;;;;;;1.52;1.00;;;;;;;12.89;100.00;101264.09;5033056;28;20228;-73
2022/10/29 01:52:41;;;;;;;1.80;1.20;;;;;;;12.73;100.00;101259.38;5030123;28;20354;-73
2022/10/29 01:55:08;;;;;;;1.25;1.00;;;;;;;12.65;100.00;101253.06;5033261;28;20212;-74
2022/10/29 01:57:37;;;;;;;1.10;1.00;;;;;;;12.62;100.00;101258.22;5032039;28;20210;-73
2022/10/29 02:00:07;;;;;;;1.02;0.93;;;;;;;12.61;100.00;101256.44;5031041;28;20188;-73
2022/10/29 02:02:46;;;;;;;1.38;1.05;;;;;;;12.65;100.00;101260.88;5036760;28;20625;-73
2022/10/29 02:05:24;;;;;;;1.48;1.10;;;;;;;12.63;100.00;101253.03;5076874;28;20216;-73
2022/10/29 02:07:55;;;;;;;0.95;0.88;;;;;;;12.55;100.00;101258.91;5075214;28;20728;-74
2022/10/29 02:10:28;;;;;;;1.55;1.10;;;;;;;12.51;100.00;101251.84;5072103;28;20194;-73
2022/10/29 02:12:56;;;;;;;1.33;1.00;;;;;;;12.39;100.00;101250.69;5073685;28;20205;-73
2022/10/29 02:15:27;;;;;;;2.15;1.95;;;;;;;12.47;100.00;101250.00;5021221;28;21275;-73
2022/10/29 02:17:59;;;;;;;0.93;0.93;;;;;;;12.50;100.00;101248.38;5075017;28;20214;-73
2022/10/29 02:20:26;;;;;;;1.23;1.13;;;;;;;12.33;100.00;101247.94;5073825;28;20348;-73
2022/10/29 02:22:53;;;;;;;1.90;1.27;;;;;;;12.21;100.00;101226.78;5076920;28;20202;-73
2022/10/29 02:25:19;;;;;;;1.25;1.10;;;;;;;12.34;100.00;101260.06;5076419;28;20279;-73
2022/10/29 02:27:46;;;;;;;1.27;1.05;;;;;;;12.26;100.00;101229.53;5082064;28;20679;-73
2022/10/29 02:30:13;;;;;;;1.00;1.00;;;;;;;12.36;100.00;101254.94;5070723;28;20190;-73
2022/10/29 02:32:40;;;;;;;1.00;0.98;;;;;;;12.27;100.00;101239.09;5031751;28;20667;-73
2022/10/29 02:35:09;;;;;;;1.10;1.00;;;;;;;12.40;100.00;101244.66;5051256;28;20199;-74
2022/10/29 02:37:36;;;;;;;0.80;0.80;;;;;;;12.30;100.00;101237.44;5055243;28;20268;-73
2022/10/29 02:40:04;;;;;;;1.17;1.02;;;;;;;12.12;100.00;101197.06;5077425;28;20206;-73
2022/10/29 02:42:30;;;;;;;1.13;1.02;;;;;;;12.36;100.00;101247.13;5076705;28;20644;-73
2022/10/29 02:44:57;;;;;;;1.50;1.20;;;;;;;12.41;100.00;101242.94;5074463;28;20679;-73
2022/10/29 02:47:24;;;;;;;1.10;1.00;;;;;;;12.48;100.00;101243.97;5072995;28;20944;-73
2022/10/29 02:49:51;;;;;;;1.17;1.08;;;;;;;12.50;100.00;101243.16;5075287;28;20224;-73
2022/10/29 02:52:19;;;;;;;1.10;1.00;;;;;;;12.71;100.00;101245.41;5074037;28;20206;-73
2022/10/29 02:54:46;;;;;;;1.20;1.10;;;;;;;12.66;100.00;101236.63;5074884;28;20648;-74
2022/10/29 02:57:12;;;;;;;0.98;0.90;;;;;;;12.68;100.00;101241.03;5075473;28;20194;-73
2022/10/29 02:59:39;;;;;;;1.00;1.00;;;;;;;12.69;100.00;101241.91;5071261;28;20194;-73
2022/10/29 03:02:06;;;;;;;1.02;0.90;;;;;;;12.75;100.00;101244.66;5072343;28;20203;-73
2022/10/29 03:04:33;;;;;;;0.80;0.80;;;;;;;12.71;100.00;101248.03;5073455;28;20230;-73
2022/10/29 03:07:00;;;;;;;1.23;1.00;;;;;;;12.66;100.00;101236.63;5073039;28;20199;-73
2022/10/29 03:09:28;;;;;;;1.63;1.13;;;;;;;12.74;100.00;101237.69;5073952;28;20202;-73
2022/10/29 03:11:55;;;;;;;1.13;1.00;;;;;;;12.47;100.00;101208.38;5075116;28;20296;-73
2022/10/29 03:14:21;;;;;;;1.25;1.05;;;;;;;12.58;100.00;101232.94;5074519;28;20578;-73
2022/10/29 03:16:48;;;;;;;1.13;1.00;;;;;;;12.51;100.00;101231.91;5073458;28;20191;-73
2022/10/29 03:19:15;;;;;;;0.90;0.90;;;;;;;12.41;100.00;101230.78;5071283;28;20203;-73
2022/10/29 03:21:42;;;;;;;1.20;1.10;;;;;;;12.17;100.00;101183.34;5078509;28;20195;-73
2022/10/29 03:24:08;;;;;;;2.47;1.20;;;;;;;12.24;100.00;101211.25;5077000;28;20229;-73
2022/10/29 03:26:36;;;;;;;1.02;0.90;;;;;;;12.35;100.00;101225.44;5074356;28;20674;-74
2022/10/29 03:29:03;;;;;;;1.40;1.27;;;;;;;12.17;100.00;101213.66;5038390;28;20209;-74
2022/10/29 03:31:30;;;;;;;0.90;0.90;;;;;;;12.15;100.00;101230.94;5071551;28;20199;-73
2022/10/29 03:33:57;;;;;;;1.50;1.10;;;;;;;12.11;100.00;101231.69;5072753;28;20226;-73
2022/10/29 03:36:24;;;;;;;1.13;1.00;;;;;;;12.12;100.00;101225.66;5072497;28;20213;-73
2022/10/29 03:38:51;;;;;;;1.05;1.00;;;;;;;12.02;100.00;101214.13;5076493;28;20210;-73
2022/10/29 03:41:17;;;;;;;1.35;1.02;;;;;;;11.98;100.00;101214.03;5075795;28;20197;-74
2022/10/29 03:43:46;;;;;;;1.42;1.10;;;;;;;12.10;100.00;101214.34;5079242;28;20202;-73
2022/10/29 03:46:12;;;;;;;1.08;0.93;;;;;;;11.99;100.00;101211.44;5077407;28;20230;-73
2022/10/29 03:48:39;;;;;;;1.20;1.10;;;;;;;12.02;100.00;101218.47;5074529;28;20206;-73
2022/10/29 03:51:06;;;;;;;1.00;0.90;;;;;;;12.06;100.00;101210.78;5083199;28;20226;-73
2022/10/29 03:53:34;;;;;;;1.17;1.00;;;;;;;12.07;100.00;101217.75;5076530;28;20325;-73
2022/10/29 03:56:01;;;;;;;1.45;1.10;;;;;;;11.93;100.00;101174.91;5078169;28;20206;-73
2022/10/29 03:58:28;;;;;;;0.95;0.90;;;;;;;12.09;100.00;101205.69;5075857;28;20191;-73
2022/10/29 04:00:58;;;;;;;1.20;1.10;;;;;;;12.22;100.00;101201.66;5078096;28;20690;-73
2022/10/29 04:03:26;;;;;;;1.08;0.98;;;;;;;12.04;100.00;101176.06;5075092;28;20206;-73
2022/10/29 04:05:52;;;;;;;1.27;1.10;;;;;;;12.17;100.00;101204.13;5076090;28;20223;-73
2022/10/29 04:08:19;;;;;;;1.70;1.15;;;;;;;12.25;100.00;101196.53;5076415;28;20197;-74
2022/10/29 04:10:47;;;;;;;1.85;1.20;;;;;;;12.37;100.00;101202.97;5074978;28;20207;-73
2022/10/29 04:13:14;;;;;;;1.10;1.00;;;;;;;12.44;100.00;101198.78;5075628;28;20747;-73
2022/10/29 04:15:41;;;;;;;0.93;0.90;;;;;;;12.43;100.00;101203.09;5078104;28;20217;-73
2022/10/29 04:18:10;;;;;;;1.13;0.90;;;;;;;12.57;100.00;101199.97;5076905;28;20225;-73
2022/10/29 04:20:38;;;;;;;1.20;1.10;;;;;;;12.53;100.00;101208.53;5076284;28;20214;-73
2022/10/29 04:23:06;;;;;;;0.90;0.90;;;;;;;12.45;100.00;101191.88;5078425;28;20737;-74
2022/10/29 04:25:32;;;;;;;1.17;1.05;;;;;;;12.45;100.00;101210.06;5077541;28;20237;-73
2022/10/29 04:27:59;;;;;;;1.40;1.30;;;;;;;12.25;100.00;101168.81;5077551;28;20207;-73
2022/10/29 04:30:26;;;;;;;1.33;1.10;;;;;;;12.45;100.00;101203.13;5075362;28;21494;-74
2022/10/29 04:32:56;;;;;;;1.45;1.10;;;;;;;12.53;100.00;101191.19;5074904;28;20214;-73
2022/10/29 04:35:24;;;;;;;0.90;0.90;;;;;;;12.55;100.00;101212.06;5075019;28;20214;-73
2022/10/29 04:37:54;;;;;;;1.02;1.00;;;;;;;12.38;100.00;101209.91;5076945;28;20199;-73
2022/10/29 04:40:22;;;;;;;1.40;1.10;;;;;;;12.37;100.00;101197.75;5076295;28;20202;-73
2022/10/29 04:42:49;;;;;;;1.00;0.98;;;;;;;12.40;100.00;101204.75;5077248;28;20655;-73
2022/10/29 04:45:16;;;;;;;1.02;1.00;;;;;;;12.38;100.00;101209.91;5074751;28;20211;-73
2022/10/29 04:47:43;;;;;;;1.30;1.10;;;;;;;12.33;100.00;101201.13;5074255;28;20203;-73
2022/10/29 04:50:10;;;;;;;1.85;1.20;;;;;;;12.38;100.00;101207.28;5081386;28;20265;-73
2022/10/29 04:52:38;;;;;;;1.38;1.10;;;;;;;12.45;100.00;101204.88;5074008;28;20260;-73
2022/10/29 04:55:05;;;;;;;1.55;1.45;;;;;;;12.44;100.00;101211.78;5076145;28;20210;-73
2022/10/29 04:57:32;;;;;;;1.35;1.00;;;;;;;12.35;100.00;101212.44;5075050;28;20194;-73
2022/10/29 04:59:58;;;;;;;1.20;1.10;;;;;;;12.23;100.00;101193.94;5075791;28;21470;-73
2022/10/29 05:02:25;;;;;;;1.20;1.10;;;;;;;12.40;100.00;101213.44;5076553;28;20210;-73
2022/10/29 05:04:52;;;;;;;0.90;0.90;;;;;;;12.43;100.00;101218.72;5077939;28;20226;-73
2022/10/29 05:07:19;;;;;;;1.77;1.30;;;;;;;12.50;100.00;101218.84;5073600;28;20205;-73
2022/10/29 05:09:47;;;;;;;0.80;0.80;;;;;;;12.58;100.00;101226.03;5075929;28;20202;-73
2022/10/29 05:12:13;;;;;;;1.10;1.00;;;;;;;12.49;100.00;101224.91;5074240;28;20578;-73
2022/10/29 05:14:40;;;;;;;1.23;1.02;;;;;;;12.49;100.00;101225.78;5079888;28;20655;-73
2022/10/29 05:17:07;;;;;;;1.52;1.00;;;;;;;12.53;100.00;101218.94;5074934;28;20218;-73
2022/10/29 05:19:34;;;;;;;1.20;1.10;;;;;;;12.57;100.00;101225.97;5077552;28;20256;-73
2022/10/29 05:22:00;;;;;;;1.15;1.05;;;;;;;12.57;100.00;101216.44;5082543;28;20203;-73
2022/10/29 05:24:27;;;;;;;1.00;1.00;;;;;;;12.53;100.00;101204.22;5078093;28;20194;-73
2022/10/29 05:26:55;;;;;;;1.00;0.90;;;;;;;12.82;100.00;101229.22;5078703;28;20602;-73
2022/10/29 05:29:22;;;;;;;1.10;1.05;;;;;;;12.76;100.00;101236.91;5021558;28;20203;-73
2022/10/29 05:31:49;;;;;;;1.33;1.10;;;;;;;12.74;100.00;101215.13;5077661;28;20201;-73
2022/10/29 05:34:16;;;;;;;1.50;1.10;;;;;;;12.83;100.00;101233.59;5071530;28;20202;-73
2022/10/29 05:36:42;;;;;;;1.65;1.50;;;;;;;12.87;100.00;101240.66;5073809;28;20198;-73
2022/10/29 05:39:09;;;;;;;1.02;1.00;;;;;;;12.91;100.00;101216.41;5018525;28;20221;-71
2022/10/29 05:41:36;;;;;;;1.02;0.95;;;;;;;13.11;100.00;101224.75;5072405;28;20250;-72
2022/10/29 05:44:04;;;;;;;0.90;0.90;;;;;;;13.38;100.00;101201.91;5039971;28;20210;-73
2022/10/29 05:46:31;;;;;;;0.93;0.93;;;;;;;13.24;100.00;101231.97;5068361;28;20230;-73
2022/10/29 05:48:58;;;;;;;1.27;1.10;;;;;;;13.23;100.00;101237.19;5074741;28;20620;-73
2022/10/29 05:51:25;;;;;;;0.98;0.98;;;;;;;13.21;100.00;101247.53;5081695;28;20234;-73
2022/10/29 05:53:51;;;;;;;0.93;0.93;;;;;;;13.16;100.00;101246.53;5069638;28;20209;-73
2022/10/29 05:56:18;;;;;;;1.40;1.00;;;;;;;13.12;100.00;101257.75;5076424;28;20223;-73
2022/10/29 05:58:45;;;;;;;1.13;1.02;;;;;;;13.07;100.00;101246.31;5070065;28;20211;-72
2022/10/29 06:01:13;;;;;;;1.02;1.00;;;;;;;13.13;100.00;101253.41;5071645;28;20682;-73
2022/10/29 06:03:40;;;;;;;1.17;1.08;;;;;;;12.89;100.00;101235.47;5066685;28;20206;-73
2022/10/29 06:06:07;;;;;;;1.20;1.02;;;;;;;13.05;100.00;101253.22;5069815;28;20291;-73
2022/10/29 06:08:34;;;;;;;1.48;1.13;;;;;;;12.98;100.00;101240.00;5070944;28;20795;-74
2022/10/29 06:11:02;;;;;;;1.13;1.02;;;;;;;12.95;100.00;101206.09;5064462;28;20644;-75
2022/10/29 06:13:29;;;;;;;1.48;1.17;;;;;;;13.22;100.00;101244.09;5069715;28;20382;-74
2022/10/29 06:16:00;;;;;;;1.10;1.00;;;;;;;13.47;100.00;101247.25;5068085;28;20225;-75
2022/10/29 06:18:29;;;;;;;0.98;0.98;;;;;;;13.52;100.00;101243.88;5069947;28;20301;-74
2022/10/29 06:20:58;;;;;;;1.20;1.10;;;;;;;13.56;100.00;101239.63;5069117;28;20269;-71
2022/10/29 06:23:25;;;;;;;1.67;1.13;;;;;;;13.61;100.00;101243.22;5069550;28;20825;-73
2022/10/29 06:25:52;;;;;;;0.90;0.90;;;;;;;13.54;100.00;101230.91;5068575;28;20275;-74
2022/10/29 06:28:18;;;;;;;1.38;1.00;;;;;;;13.64;100.00;101248.47;5069585;28;20696;-73
2022/10/29 06:30:47;;;;;;;1.60;1.10;;;;;;;13.85;100.00;101249.81;5067457;28;20633;-72
2022/10/29 06:33:15;;;;;;;0.98;0.98;;;;;;;13.75;100.00;101244.38;5068122;28;20301;-71
2022/10/29 06:35:43;;;;;;;1.90;1.10;;;;;;;14.06;100.00;101251.97;5057506;28;20206;-70
2022/10/29 06:38:10;;;;;;;4.18;3.65;;;;;;;13.99;100.00;101229.22;5061805;28;20647;-74
2022/10/29 06:40:37;;;;;;;0.90;0.90;;;;;;;14.12;100.00;101246.88;5067161;28;20210;-72
2022/10/29 06:43:06;;;;;;;1.08;0.98;;;;;;;14.40;100.00;101258.75;5066187;28;20206;-72
2022/10/29 06:45:34;;;;;;;1.10;1.00;;;;;;;14.46;100.00;101269.28;5056821;28;20603;-73
2022/10/29 06:48:03;;;;;;;1.48;1.38;;;;;;;14.52;100.00;101273.75;5068208;28;20202;-73
2022/10/29 06:50:31;;;;;;;0.85;0.85;;;;;;;14.02;100.00;101255.34;5051250;28;20737;-73
2022/10/29 06:53:00;;;;;;;0.90;0.90;;;;;;;13.69;100.00;101203.44;5069597;28;20206;-73
2022/10/29 06:55:27;;;;;;;1.65;1.13;;;;;;;14.07;100.00;101261.56;5058774;28;20211;-74
2022/10/29 06:57:59;;;;;;;1.20;1.10;;;;;;;14.52;100.00;101278.97;5069891;28;20655;-72
2022/10/29 07:00:26;;;;;;;1.13;1.00;;;;;;;14.37;100.00;101253.47;5038154;28;20203;-73
2022/10/29 07:02:53;;;;;;;1.10;1.00;;;;;;;14.61;100.00;101281.72;5053245;28;20265;-73
2022/10/29 07:05:20;;;;;;;1.35;1.25;;;;;;;14.70;100.00;101287.09;5057830;28;20230;-71
2022/10/29 07:07:47;;;;;;;1.27;1.17;;;;;;;14.73;100.00;101268.91;5061960;28;20682;-70
2022/10/29 07:10:16;;;;;;;0.90;0.90;;;;;;;15.04;100.00;101288.56;5049534;28;20294;-68
2022/10/29 07:12:43;;;;;;;1.20;1.10;;;;;;;15.04;100.00;101258.09;5059106;28;20222;-70
2022/10/29 07:15:11;;;;;;;1.30;1.00;;;;;;;15.25;100.00;101281.94;5071486;28;20199;-71
2022/10/29 07:17:38;;;;;;;0.90;0.90;;;;;;;15.31;100.00;101284.63;5058897;28;20199;-72
2022/10/29 07:20:07;;;;;;;0.90;0.90;;;;;;;15.48;100.00;101278.81;5055536;28;20222;-78
2022/10/29 07:22:34;;;;;;;1.20;1.08;;;;;;;15.48;100.00;101263.13;5056770;28;20227;-71
2022/10/29 07:25:01;;;;;;;1.65;1.10;;;;;;;15.68;100.00;101282.59;5065424;28;20203;-72
2022/10/29 07:27:29;;;;;;;1.52;1.25;;;;;;;15.77;100.00;101287.94;5057429;28;20207;-73
2022/10/29 07:29:56;;;;;;;1.02;1.00;;;;;;;15.36;100.00;101279.50;5065194;28;20584;-73
2022/10/29 07:32:23;;;;;;;1.45;1.10;;;;;;;15.33;100.00;101279.44;5063633;28;20591;-71
2022/10/29 07:34:50;;;;;;;1.13;1.00;;;;;;;15.26;100.00;101281.09;5058890;28;20215;-70
2022/10/29 07:37:16;;;;;;;1.20;1.10;;;;;;;15.52;100.00;101278.03;5068515;28;20203;-71
2022/10/29 07:39:43;;;;;;;0.80;0.80;;;;;;;15.64;100.00;101283.41;5073226;28;20219;-71
2022/10/29 07:42:10;;;;;;;1.15;1.02;;;;;;;15.73;100.00;101275.69;5065118;28;20195;-71
2022/10/29 07:44:38;;;;;;;1.20;1.10;;;;;;;15.83;100.00;101281.06;5068867;28;20748;-72
2022/10/29 07:47:05;;;;;;;1.10;1.00;;;;;;;15.72;100.00;101279.16;5062757;28;20226;-74
2022/10/29 07:49:32;;;;;;;1.17;1.13;;;;;;;15.78;100.00;101260.94;5062252;28;20206;-71
2022/10/29 07:51:58;;;;;;;1.10;1.00;;;;;;;15.96;100.00;101286.44;5052592;28;20254;-73
2022/10/29 07:54:25;;;;;;;2.53;1.48;;;;;;;15.59;100.00;101212.75;5067577;28;20198;-72
2022/10/29 07:56:52;;;;;;;1.58;1.10;;;;;;;16.05;99.62;101284.78;5072518;28;20203;-74
2022/10/29 07:59:19;;;;;;;1.67;1.30;;;;;;;16.14;96.40;101297.13;5072506;28;20589;-71
2022/10/29 08:01:47;;;;;;;2.28;1.42;;;;;;;16.34;94.40;101296.47;5072525;28;20222;-72
2022/10/29 08:04:14;;;;;;;2.03;1.40;;;;;;;16.28;95.03;101300.78;5072742;28;20195;-72
2022/10/29 08:06:41;;;;;;;1.20;1.10;;;;;;;16.26;94.66;101279.84;5072572;28;20226;-72
2022/10/29 08:09:08;;;;;;;0.85;0.85;;;;;;;16.23;94.14;101278.94;5072488;28;20248;-72
2022/10/29 08:11:34;;;;;;;1.10;1.00;;;;;;;16.43;93.03;101290.47;5072457;28;20199;-71
2022/10/29 08:14:01;;;;;;;1.30;1.20;;;;;;;16.49;92.55;101302.75;5037116;28;20697;-71
2022/10/29 08:16:28;;;;;;;1.00;1.00;;;;;;;16.53;92.28;101286.22;5072434;28;20199;-71
2022/10/29 08:18:56;;;;;;;0.93;0.90;;;;;;;16.76;100.00;101287.34;5072650;28;20195;-73
2022/10/29 08:21:24;;;;;;;1.20;1.10;;;;;;;16.92;100.00;101288.34;5053441;28;20588;-72
2022/10/29 08:23:50;;;;;;;1.10;1.00;;;;;;;16.94;90.99;101286.63;5072453;28;20206;-72
2022/10/29 08:26:19;;;;;;;1.40;1.05;;;;;;;16.86;89.81;101260.38;5072325;28;20226;-72
2022/10/29 08:28:46;;;;;;;1.80;1.40;;;;;;;17.08;88.86;101291.13;5072309;28;20277;-73
2022/10/29 08:31:12;;;;;;;1.25;1.15;;;;;;;17.01;87.32;101247.41;5072133;28;20206;-73
2022/10/29 08:33:39;;;;;;;1.08;0.98;;;;;;;17.45;100.00;101281.75;5072473;28;20198;-72
2022/10/29 08:36:08;;;;;;;0.98;0.88;;;;;;;17.37;87.81;101261.63;5072184;28;20199;-72
2022/10/29 08:38:35;;;;;;;1.50;1.13;;;;;;;17.56;84.98;101276.56;5073482;28;20202;-72
2022/10/29 08:41:36;;;;;;;1.20;1.10;;;;;;;17.78;81.43;101255.75;5080403;28;20206;-72
2022/10/29 08:44:24;;;;;;;0.90;0.90;;;;;;;17.96;80.92;101275.94;5029689;28;20221;-71
2022/10/29 08:46:56;;;;;;;1.05;0.95;;;;;;;17.90;79.27;101277.66;5029441;28;20229;-72
2022/10/29 08:49:31;;;;;;;1.85;1.33;;;;;;;18.02;78.58;101268.06;4996216;28;20192;-73
2022/10/29 08:52:05;;;;;;;1.25;1.15;;;;;;;18.22;77.06;101276.03;4997965;28;20739;-73
2022/10/29 08:54:36;;;;;;;1.10;1.00;;;;;;;18.25;74.89;101269.03;5029255;28;20633;-73
2022/10/29 08:57:07;;;;;;;1.20;1.02;;;;;;;18.35;74.82;101267.31;5029625;28;20200;-73
2022/10/29 08:59:42;;;;;;;1.45;1.23;;;;;;;18.40;73.60;101262.06;5029417;28;20196;-73
2022/10/29 09:02:16;;;;;;;1.00;0.90;;;;;;;18.41;73.44;101269.09;5029237;28;20203;-73
2022/10/29 09:04:43;;;;;;;0.90;0.90;;;;;;;18.33;72.69;101266.44;5029098;28;20231;-73
2022/10/29 09:07:25;;;;;;;1.10;1.00;;;;;;;18.54;71.84;101266.50;5021569;28;20234;-73
2022/10/29 09:09:59;;;;;;;1.25;1.10;;;;;;;18.54;70.16;101260.38;5000368;28;20205;-72
2022/10/29 09:12:44;;;;;;;3.05;2.33;;;;;;;18.56;78.00;101232.34;4995569;28;20260;-72
2022/10/29 09:15:41;;;;;;;1.50;1.08;;;;;;;18.69;67.30;101263.03;4996568;28;20236;-71
2022/10/29 09:18:20;;;;;;;1.48;1.10;;;;;;;18.62;68.50;101256.88;5000420;28;20352;-71
2022/10/29 09:20:52;;;;;;;1.05;0.95;;;;;;;18.81;70.55;101257.75;5066599;28;20213;-71
2022/10/29 09:23:31;;;;;;;1.20;0.95;;;;;;;18.96;67.37;101249.00;5070716;28;20210;-71
2022/10/29 09:26:02;;;;;;;1.35;1.25;;;;;;;19.00;67.07;101227.97;5056626;28;20194;-71
2022/10/29 09:28:44;;;;;;;1.15;1.00;;;;;;;19.11;69.75;101235.84;5072007;28;20622;-73
2022/10/29 09:31:23;;;;;;;1.48;1.10;;;;;;;19.15;72.54;101237.59;5081019;28;20248;-74
2022/10/29 09:33:52;;;;;;;0.80;0.80;;;;;;;19.15;63.51;101240.22;5070873;28;20248;-73
2022/10/29 09:36:22;;;;;;;1.20;1.10;;;;;;;18.90;75.07;101178.94;5072261;28;20289;-72
2022/10/29 09:38:57;;;;;;;1.20;1.10;;;;;;;19.18;64.22;101237.59;5069435;28;20202;-73
2022/10/29 09:41:30;;;;;;;1.00;0.90;;;;;;;19.02;64.06;101236.72;5042544;28;20211;-74
2022/10/29 09:44:01;;;;;;;0.80;0.80;;;;;;;18.94;64.15;101214.81;5067297;28;20214;-74
2022/10/29 09:46:39;;;;;;;2.10;1.23;;;;;;;19.08;64.42;101231.50;5058502;28;20231;-75
2022/10/29 09:49:21;;;;;;;0.82;0.82;;;;;;;19.16;63.02;101231.44;5057389;28;20841;-72
2022/10/29 09:51:53;;;;;;;2.28;1.30;;;;;;;19.03;62.53;101225.34;5052306;28;20231;-73
2022/10/29 09:54:23;;;;;;;0.80;0.80;;;;;;;19.18;62.49;101216.56;5049990;28;20669;-74
2022/10/29 09:56:50;;;;;;;1.13;1.00;;;;;;;19.17;62.45;101212.16;5064173;28;20215;-73
2022/10/29 09:59:24;;;;;;;2.45;1.45;;;;;;;19.43;62.25;101210.41;5051464;28;20195;-72
2022/10/29 10:01:51;;;;;;;1.58;1.10;;;;;;;19.30;61.61;101198.97;5063691;28;20824;-72
2022/10/29 10:04:23;;;;;;;1.17;1.08;;;;;;;19.62;61.26;101200.69;5051218;28;20203;-71
2022/10/29 10:07:06;;;;;;;0.80;0.80;;;;;;;19.82;60.40;101195.31;5061536;28;20228;-75
2022/10/29 10:09:55;;;;;;;1.00;0.90;;;;;;;19.86;63.11;101166.34;5074820;28;20583;-70
2022/10/29 10:12:24;;;;;;;1.00;0.90;;;;;;;20.03;60.05;101192.56;5055931;28;20208;-73
2022/10/29 10:15:03;;;;;;;0.82;0.82;;;;;;;20.23;58.59;101188.91;5050183;28;20207;-72
2022/10/29 10:17:59;;;;;;;1.48;1.08;;;;;;;20.31;58.29;101182.75;5070436;28;20202;-72
2022/10/29 10:20:35;;;;;;;1.38;1.02;;;;;;;20.47;60.18;101187.91;5060081;28;20203;-72
2022/10/29 10:23:09;;;;;;;0.90;0.90;;;;;;;20.07;59.39;101116.19;5065319;28;20598;-72
2022/10/29 10:25:39;;;;;;;0.98;0.82;;;;;;;20.44;58.22;101171.25;5068951;28;20199;-73
2022/10/29 10:28:19;;;;;;;1.00;0.90;;;;;;;20.43;58.24;101140.53;5071546;28;20222;-72
2022/10/29 10:31:04;;;;;;;1.35;1.00;;;;;;;20.54;58.24;101165.91;5069262;28;20217;-72
2022/10/29 10:33:33;;;;;;;1.63;1.08;;;;;;;20.63;58.04;101157.91;5069271;28;20737;-73
2022/10/29 10:36:02;;;;;;;1.38;1.00;;;;;;;20.74;67.27;101156.03;5072028;28;20194;-72
2022/10/29 10:38:29;;;;;;;1.00;0.88;;;;;;;20.67;58.43;101161.38;5070289;28;20202;-73
2022/10/29 10:41:07;;;;;;;1.40;1.30;;;;;;;20.72;57.37;101149.06;5071905;28;20198;-72
2022/10/29 10:43:35;;;;;;;1.42;1.00;;;;;;;20.74;57.80;101150.78;5067324;28;20194;-74
2022/10/29 10:46:11;;;;;;;1.00;0.90;;;;;;;20.98;56.96;101151.41;5071093;28;20704;-72
2022/10/29 10:48:38;;;;;;;2.08;1.20;;;;;;;20.77;56.24;101131.41;5074223;28;20194;-72
2022/10/29 10:51:21;;;;;;;1.75;1.20;;;;;;;21.05;55.31;101151.31;5074101;28;20226;-72
2022/10/29 10:53:49;;;;;;;1.38;1.00;;;;;;;20.72;55.82;101130.59;5071838;28;20234;-72
2022/10/29 10:56:19;;;;;;;2.22;1.23;;;;;;;20.80;55.96;101112.06;5070436;28;20214;-72
2022/10/29 10:59:07;;;;;;;1.10;0.90;;;;;;;20.67;55.32;101063.88;5073454;28;20202;-75
2022/10/29 11:01:37;;;;;;;2.08;1.08;;;;;;;21.07;55.59;101140.78;5073524;28;20678;-72
2022/10/29 11:04:14;;;;;;;0.70;0.70;;;;;;;21.06;54.95;101129.34;5074223;28;20198;-73
2022/10/29 11:06:46;;;;;;;0.88;0.80;;;;;;;21.08;54.06;101117.00;5072305;28;20230;-72
2022/10/29 11:09:20;;;;;;;1.10;1.00;;;;;;;21.26;53.02;101114.19;5073382;28;20214;-72
2022/10/29 11:11:55;;;;;;;1.02;0.90;;;;;;;21.41;53.01;101122.81;5091783;28;20202;-72
2022/10/29 11:14:29;;;;;;;2.03;1.20;;;;;;;21.29;52.80;101101.88;5089960;28;20228;-73
2022/10/29 11:16:59;;;;;;;1.75;1.02;;;;;;;21.27;53.06;101102.75;5073686;28;20255;-72
2022/10/29 11:19:31;;;;;;;1.15;0.90;;;;;;;21.49;52.37;101121.81;5073312;28;20198;-73
2022/10/29 11:22:11;;;;;;;2.47;1.35;;;;;;;21.22;51.90;101115.09;5070842;28;20195;-73
2022/10/29 11:24:48;;;;;;;0.93;0.77;;;;;;;21.48;53.53;101111.28;5067422;28;20206;-72
2022/10/29 11:27:33;;;;;;;12.65;1.63;;;;;;;21.39;51.92;101106.13;5084175;28;20221;-71
2022/10/29 11:30:03;;;;;;;3.75;1.30;;;;;;;21.59;51.09;101117.28;5084775;28;20259;-71
2022/10/29 11:32:41;;;;;;;0.90;0.88;;;;;;;21.55;51.47;101107.66;5073134;28;20199;-72